sensor_id;sensor_type;location;lat;lon;timestamp;P1;durP1;ratioP1;P2;durP2;ratioP2
14396;SDS011;50653;47.810;13.022;2023-05-07T00:01:36;4.30;;;2.95;;
14396;SDS011;50653;47.810;13.022;2023-05-07T00:04:02;3.50;;;3.20;;
14396;SDS011;50653;47.810;13.022;2023-05-07T00:06:28;3.13;;;2.93;;
14396;SDS011;50653;47.810;13.022;2023-05-07T00:08:55;3.67;;;3.38;;
14396;SDS011;50653;47.810;13.022;2023-05-07T00:11:21;4.15;;;3.78;;
14396;SDS011;50653;47.810;13.022;2023-05-07T00:13:47;3.30;;;3.20;;
14396;SDS011;50653;47.810;13.022;2023-05-07T00:16:13;3.80;;;3.50;;
14396;SDS011;50653;47.810;13.022;2023-05-07T00:18:39;3.10;;;2.90;;
14396;SDS011;50653;47.810;13.022;2023-05-07T00:21:05;3.53;;;3.33;;
14396;SDS011;50653;47.810;13.022;2023-05-07T00:23:30;4.67;;;3.70;;
14396;SDS011;50653;47.810;13.022;2023-05-07T00:25:56;3.78;;;3.47;;
14396;SDS011;50653;47.810;13.022;2023-05-07T00:28:22;3.85;;;3.65;;
14396;SDS011;50653;47.810;13.022;2023-05-07T00:30:47;3.70;;;3.40;;
14396;SDS011;50653;47.810;13.022;2023-05-07T00:33:13;3.60;;;3.40;;
14396;SDS011;50653;47.810;13.022;2023-05-07T00:35:38;4.38;;;4.03;;
14396;SDS011;50653;47.810;13.022;2023-05-07T00:38:04;3.50;;;3.30;;
14396;SDS011;50653;47.810;13.022;2023-05-07T00:40:30;3.50;;;3.30;;
14396;SDS011;50653;47.810;13.022;2023-05-07T00:42:55;3.50;;;3.20;;
14396;SDS011;50653;47.810;13.022;2023-05-07T00:45:25;3.88;;;3.58;;
14396;SDS011;50653;47.810;13.022;2023-05-07T00:47:55;3.90;;;3.60;;
14396;SDS011;50653;47.810;13.022;2023-05-07T00:50:24;3.47;;;3.28;;
14396;SDS011;50653;47.810;13.022;2023-05-07T00:52:51;3.30;;;3.10;;
14396;SDS011;50653;47.810;13.022;2023-05-07T00:55:17;3.20;;;2.95;;
14396;SDS011;50653;47.810;13.022;2023-05-07T00:57:43;3.38;;;3.17;;
14396;SDS011;50653;47.810;13.022;2023-05-07T01:00:09;3.25;;;2.95;;
14396;SDS011;50653;47.810;13.022;2023-05-07T01:02:37;3.30;;;3.10;;
14396;SDS011;50653;47.810;13.022;2023-05-07T01:05:04;4.22;;;3.20;;
14396;SDS011;50653;47.810;13.022;2023-05-07T01:07:32;3.15;;;3.05;;
14396;SDS011;50653;47.810;13.022;2023-05-07T01:09:59;3.40;;;3.10;;
14396;SDS011;50653;47.810;13.022;2023-05-07T01:12:25;3.33;;;3.13;;
14396;SDS011;50653;47.810;13.022;2023-05-07T01:14:53;6.40;;;3.30;;
14396;SDS011;50653;47.810;13.022;2023-05-07T01:17:19;4.00;;;2.70;;
14396;SDS011;50653;47.810;13.022;2023-05-07T01:19:45;3.00;;;2.80;;
14396;SDS011;50653;47.810;13.022;2023-05-07T01:22:12;3.35;;;3.15;;
14396;SDS011;50653;47.810;13.022;2023-05-07T01:24:47;3.40;;;2.90;;
14396;SDS011;50653;47.810;13.022;2023-05-07T01:27:14;3.80;;;3.50;;
14396;SDS011;50653;47.810;13.022;2023-05-07T01:29:40;4.23;;;3.93;;
14396;SDS011;50653;47.810;13.022;2023-05-07T01:32:06;3.03;;;2.85;;
14396;SDS011;50653;47.810;13.022;2023-05-07T01:34:32;3.20;;;3.00;;
14396;SDS011;50653;47.810;13.022;2023-05-07T01:37:01;3.47;;;3.20;;
14396;SDS011;50653;47.810;13.022;2023-05-07T01:39:28;3.13;;;3.00;;
14396;SDS011;50653;47.810;13.022;2023-05-07T01:41:55;3.58;;;2.80;;
14396;SDS011;50653;47.810;13.022;2023-05-07T01:44:22;3.00;;;2.58;;
14396;SDS011;50653;47.810;13.022;2023-05-07T01:46:49;3.10;;;3.00;;
14396;SDS011;50653;47.810;13.022;2023-05-07T01:49:15;3.33;;;2.70;;
14396;SDS011;50653;47.810;13.022;2023-05-07T01:51:42;3.20;;;2.80;;
14396;SDS011;50653;47.810;13.022;2023-05-07T01:54:08;3.08;;;2.88;;
14396;SDS011;50653;47.810;13.022;2023-05-07T01:56:35;3.07;;;2.77;;
14396;SDS011;50653;47.810;13.022;2023-05-07T01:59:01;2.92;;;2.63;;
14396;SDS011;50653;47.810;13.022;2023-05-07T02:01:27;2.80;;;2.70;;
14396;SDS011;50653;47.810;13.022;2023-05-07T02:03:53;3.70;;;3.50;;
14396;SDS011;50653;47.810;13.022;2023-05-07T02:06:23;3.30;;;3.13;;
14396;SDS011;50653;47.810;13.022;2023-05-07T02:08:51;5.30;;;3.15;;
14396;SDS011;50653;47.810;13.022;2023-05-07T02:11:17;6.20;;;3.03;;
14396;SDS011;50653;47.810;13.022;2023-05-07T02:13:43;3.05;;;2.85;;
14396;SDS011;50653;47.810;13.022;2023-05-07T02:16:09;2.90;;;2.70;;
14396;SDS011;50653;47.810;13.022;2023-05-07T02:18:37;3.20;;;2.92;;
14396;SDS011;50653;47.810;13.022;2023-05-07T02:21:02;3.80;;;3.60;;
14396;SDS011;50653;47.810;13.022;2023-05-07T02:23:28;3.50;;;3.30;;
14396;SDS011;50653;47.810;13.022;2023-05-07T02:25:54;3.03;;;2.80;;
14396;SDS011;50653;47.810;13.022;2023-05-07T02:28:20;4.90;;;2.60;;
14396;SDS011;50653;47.810;13.022;2023-05-07T02:30:58;3.20;;;3.10;;
14396;SDS011;50653;47.810;13.022;2023-05-07T02:33:25;3.00;;;2.70;;
14396;SDS011;50653;47.810;13.022;2023-05-07T02:35:51;4.90;;;2.85;;
14396;SDS011;50653;47.810;13.022;2023-05-07T02:38:17;3.20;;;2.90;;
14396;SDS011;50653;47.810;13.022;2023-05-07T02:40:43;3.40;;;3.20;;
14396;SDS011;50653;47.810;13.022;2023-05-07T02:43:08;2.85;;;2.65;;
14396;SDS011;50653;47.810;13.022;2023-05-07T02:45:34;3.00;;;2.80;;
14396;SDS011;50653;47.810;13.022;2023-05-07T02:48:03;3.33;;;3.03;;
14396;SDS011;50653;47.810;13.022;2023-05-07T02:50:31;2.72;;;2.53;;
14396;SDS011;50653;47.810;13.022;2023-05-07T02:52:57;2.30;;;2.20;;
14396;SDS011;50653;47.810;13.022;2023-05-07T02:55:23;3.05;;;2.85;;
14396;SDS011;50653;47.810;13.022;2023-05-07T02:57:49;4.57;;;2.77;;
14396;SDS011;50653;47.810;13.022;2023-05-07T03:00:16;3.00;;;2.90;;
14396;SDS011;50653;47.810;13.022;2023-05-07T03:03:02;3.03;;;2.78;;
14396;SDS011;50653;47.810;13.022;2023-05-07T03:05:28;3.10;;;2.80;;
14396;SDS011;50653;47.810;13.022;2023-05-07T03:07:54;2.67;;;2.57;;
14396;SDS011;50653;47.810;13.022;2023-05-07T03:10:19;2.77;;;2.30;;
14396;SDS011;50653;47.810;13.022;2023-05-07T03:12:45;3.80;;;2.47;;
14396;SDS011;50653;47.810;13.022;2023-05-07T03:15:14;2.50;;;2.40;;
14396;SDS011;50653;47.810;13.022;2023-05-07T03:17:40;2.80;;;2.30;;
14396;SDS011;50653;47.810;13.022;2023-05-07T03:20:07;2.50;;;2.40;;
14396;SDS011;50653;47.810;13.022;2023-05-07T03:22:34;6.00;;;2.50;;
14396;SDS011;50653;47.810;13.022;2023-05-07T03:25:00;4.57;;;2.10;;
14396;SDS011;50653;47.810;13.022;2023-05-07T03:27:26;2.10;;;2.00;;
14396;SDS011;50653;47.810;13.022;2023-05-07T03:29:53;3.30;;;3.00;;
14396;SDS011;50653;47.810;13.022;2023-05-07T03:32:19;3.90;;;3.60;;
14396;SDS011;50653;47.810;13.022;2023-05-07T03:34:45;3.50;;;3.20;;
14396;SDS011;50653;47.810;13.022;2023-05-07T03:37:12;2.60;;;2.50;;
14396;SDS011;50653;47.810;13.022;2023-05-07T03:39:38;3.33;;;3.03;;
14396;SDS011;50653;47.810;13.022;2023-05-07T03:42:03;3.40;;;3.23;;
14396;SDS011;50653;47.810;13.022;2023-05-07T03:44:31;2.80;;;2.60;;
14396;SDS011;50653;47.810;13.022;2023-05-07T03:46:58;4.10;;;2.67;;
14396;SDS011;50653;47.810;13.022;2023-05-07T03:49:24;4.07;;;2.75;;
14396;SDS011;50653;47.810;13.022;2023-05-07T03:51:50;2.50;;;2.30;;
14396;SDS011;50653;47.810;13.022;2023-05-07T03:54:17;2.90;;;2.80;;
14396;SDS011;50653;47.810;13.022;2023-05-07T03:56:45;3.00;;;2.70;;
14396;SDS011;50653;47.810;13.022;2023-05-07T03:59:11;2.60;;;2.40;;
14396;SDS011;50653;47.810;13.022;2023-05-07T04:01:39;3.22;;;3.00;;
14396;SDS011;50653;47.810;13.022;2023-05-07T04:04:05;2.35;;;2.25;;
14396;SDS011;50653;47.810;13.022;2023-05-07T04:06:33;3.42;;;2.58;;
14396;SDS011;50653;47.810;13.022;2023-05-07T04:08:58;2.70;;;2.05;;
14396;SDS011;50653;47.810;13.022;2023-05-07T04:11:25;5.65;;;2.60;;
14396;SDS011;50653;47.810;13.022;2023-05-07T04:13:52;2.75;;;2.55;;
14396;SDS011;50653;47.810;13.022;2023-05-07T04:16:21;3.40;;;2.50;;
14396;SDS011;50653;47.810;13.022;2023-05-07T04:18:47;2.10;;;2.00;;
14396;SDS011;50653;47.810;13.022;2023-05-07T04:21:16;4.20;;;2.40;;
14396;SDS011;50653;47.810;13.022;2023-05-07T04:23:47;2.30;;;2.20;;
14396;SDS011;50653;47.810;13.022;2023-05-07T04:26:14;2.50;;;2.30;;
14396;SDS011;50653;47.810;13.022;2023-05-07T04:28:42;2.42;;;2.33;;
14396;SDS011;50653;47.810;13.022;2023-05-07T04:31:08;2.90;;;2.60;;
14396;SDS011;50653;47.810;13.022;2023-05-07T04:33:35;2.55;;;2.40;;
14396;SDS011;50653;47.810;13.022;2023-05-07T04:36:02;2.60;;;2.30;;
14396;SDS011;50653;47.810;13.022;2023-05-07T04:38:30;2.58;;;2.38;;
14396;SDS011;50653;47.810;13.022;2023-05-07T04:41:04;2.78;;;2.58;;
14396;SDS011;50653;47.810;13.022;2023-05-07T04:43:34;2.60;;;2.40;;
14396;SDS011;50653;47.810;13.022;2023-05-07T04:46:00;2.50;;;2.30;;
14396;SDS011;50653;47.810;13.022;2023-05-07T04:48:27;2.53;;;2.43;;
14396;SDS011;50653;47.810;13.022;2023-05-07T04:50:54;3.00;;;2.70;;
14396;SDS011;50653;47.810;13.022;2023-05-07T04:53:20;3.60;;;3.20;;
14396;SDS011;50653;47.810;13.022;2023-05-07T04:55:48;4.40;;;4.00;;
14396;SDS011;50653;47.810;13.022;2023-05-07T04:58:14;3.83;;;3.10;;
14396;SDS011;50653;47.810;13.022;2023-05-07T05:00:41;2.65;;;2.42;;
14396;SDS011;50653;47.810;13.022;2023-05-07T05:03:07;2.00;;;1.90;;
14396;SDS011;50653;47.810;13.022;2023-05-07T05:05:33;2.60;;;2.40;;
14396;SDS011;50653;47.810;13.022;2023-05-07T05:08:01;4.75;;;2.83;;
14396;SDS011;50653;47.810;13.022;2023-05-07T05:10:26;2.97;;;2.50;;
14396;SDS011;50653;47.810;13.022;2023-05-07T05:12:52;3.22;;;2.92;;
14396;SDS011;50653;47.810;13.022;2023-05-07T05:15:20;4.53;;;4.13;;
14396;SDS011;50653;47.810;13.022;2023-05-07T05:17:45;2.50;;;2.30;;
14396;SDS011;50653;47.810;13.022;2023-05-07T05:20:12;2.50;;;2.40;;
14396;SDS011;50653;47.810;13.022;2023-05-07T05:22:39;2.95;;;2.72;;
14396;SDS011;50653;47.810;13.022;2023-05-07T05:25:06;2.45;;;2.22;;
14396;SDS011;50653;47.810;13.022;2023-05-07T05:27:32;2.50;;;2.10;;
14396;SDS011;50653;47.810;13.022;2023-05-07T05:29:59;2.40;;;2.30;;
14396;SDS011;50653;47.810;13.022;2023-05-07T05:32:24;2.60;;;2.30;;
14396;SDS011;50653;47.810;13.022;2023-05-07T05:34:53;2.63;;;2.42;;
14396;SDS011;50653;47.810;13.022;2023-05-07T05:37:19;2.35;;;2.15;;
14396;SDS011;50653;47.810;13.022;2023-05-07T05:39:45;3.03;;;2.10;;
14396;SDS011;50653;47.810;13.022;2023-05-07T05:42:10;4.10;;;2.40;;
14396;SDS011;50653;47.810;13.022;2023-05-07T05:44:36;3.00;;;2.70;;
14396;SDS011;50653;47.810;13.022;2023-05-07T05:47:02;2.75;;;2.55;;
14396;SDS011;50653;47.810;13.022;2023-05-07T05:49:29;3.10;;;2.55;;
14396;SDS011;50653;47.810;13.022;2023-05-07T05:51:55;3.10;;;2.25;;
14396;SDS011;50653;47.810;13.022;2023-05-07T05:54:23;2.77;;;2.47;;
14396;SDS011;50653;47.810;13.022;2023-05-07T05:56:49;2.20;;;2.10;;
14396;SDS011;50653;47.810;13.022;2023-05-07T05:59:15;2.38;;;2.10;;
14396;SDS011;50653;47.810;13.022;2023-05-07T06:01:41;2.40;;;2.10;;
14396;SDS011;50653;47.810;13.022;2023-05-07T06:04:07;2.13;;;1.80;;
14396;SDS011;50653;47.810;13.022;2023-05-07T06:06:33;3.25;;;3.05;;
14396;SDS011;50653;47.810;13.022;2023-05-07T06:09:00;4.78;;;4.38;;
14396;SDS011;50653;47.810;13.022;2023-05-07T06:11:34;5.97;;;5.57;;
14396;SDS011;50653;47.810;13.022;2023-05-07T06:13:59;4.78;;;3.60;;
14396;SDS011;50653;47.810;13.022;2023-05-07T06:16:26;7.70;;;7.03;;
14396;SDS011;50653;47.810;13.022;2023-05-07T06:18:53;6.85;;;6.25;;
14396;SDS011;50653;47.810;13.022;2023-05-07T06:21:18;5.80;;;2.50;;
14396;SDS011;50653;47.810;13.022;2023-05-07T06:23:44;2.60;;;2.40;;
14396;SDS011;50653;47.810;13.022;2023-05-07T06:26:10;3.30;;;3.00;;
14396;SDS011;50653;47.810;13.022;2023-05-07T06:28:39;2.60;;;2.28;;
14396;SDS011;50653;47.810;13.022;2023-05-07T06:31:16;2.30;;;2.10;;
14396;SDS011;50653;47.810;13.022;2023-05-07T06:33:50;2.20;;;2.00;;
14396;SDS011;50653;47.810;13.022;2023-05-07T06:36:17;1.90;;;1.80;;
14396;SDS011;50653;47.810;13.022;2023-05-07T06:38:43;1.90;;;1.80;;
14396;SDS011;50653;47.810;13.022;2023-05-07T06:41:09;2.35;;;2.10;;
14396;SDS011;50653;47.810;13.022;2023-05-07T06:43:37;3.60;;;2.17;;
14396;SDS011;50653;47.810;13.022;2023-05-07T06:46:26;2.33;;;2.22;;
14396;SDS011;50653;47.810;13.022;2023-05-07T06:48:52;3.90;;;2.67;;
14396;SDS011;50653;47.810;13.022;2023-05-07T06:51:18;2.80;;;2.60;;
14396;SDS011;50653;47.810;13.022;2023-05-07T06:53:45;2.88;;;2.60;;
14396;SDS011;50653;47.810;13.022;2023-05-07T06:56:10;4.80;;;2.80;;
14396;SDS011;50653;47.810;13.022;2023-05-07T06:58:38;2.95;;;2.75;;
14396;SDS011;50653;47.810;13.022;2023-05-07T07:01:04;5.70;;;5.30;;
14396;SDS011;50653;47.810;13.022;2023-05-07T07:03:31;3.23;;;2.93;;
14396;SDS011;50653;47.810;13.022;2023-05-07T07:05:57;2.55;;;2.20;;
14396;SDS011;50653;47.810;13.022;2023-05-07T07:08:23;1.93;;;1.83;;
14396;SDS011;50653;47.810;13.022;2023-05-07T07:10:50;2.80;;;1.67;;
14396;SDS011;50653;47.810;13.022;2023-05-07T07:13:16;2.00;;;1.90;;
14396;SDS011;50653;47.810;13.022;2023-05-07T07:15:41;2.40;;;1.60;;
14396;SDS011;50653;47.810;13.022;2023-05-07T07:18:08;2.03;;;1.92;;
14396;SDS011;50653;47.810;13.022;2023-05-07T07:20:34;1.80;;;1.70;;
14396;SDS011;50653;47.810;13.022;2023-05-07T07:23:00;3.67;;;1.87;;
14396;SDS011;50653;47.810;13.022;2023-05-07T07:25:25;1.80;;;1.70;;
14396;SDS011;50653;47.810;13.022;2023-05-07T07:27:51;3.05;;;1.60;;
14396;SDS011;50653;47.810;13.022;2023-05-07T07:30:19;1.70;;;1.60;;
14396;SDS011;50653;47.810;13.022;2023-05-07T07:32:47;2.50;;;2.30;;
14396;SDS011;50653;47.810;13.022;2023-05-07T07:35:13;3.80;;;1.92;;
14396;SDS011;50653;47.810;13.022;2023-05-07T07:37:39;2.80;;;2.20;;
14396;SDS011;50653;47.810;13.022;2023-05-07T07:40:05;4.45;;;2.00;;
14396;SDS011;50653;47.810;13.022;2023-05-07T07:42:33;1.90;;;1.80;;
14396;SDS011;50653;47.810;13.022;2023-05-07T07:44:59;2.15;;;1.75;;
14396;SDS011;50653;47.810;13.022;2023-05-07T07:47:28;2.10;;;2.00;;
14396;SDS011;50653;47.810;13.022;2023-05-07T07:49:54;3.15;;;2.00;;
14396;SDS011;50653;47.810;13.022;2023-05-07T07:52:20;4.40;;;2.30;;
14396;SDS011;50653;47.810;13.022;2023-05-07T07:54:46;3.00;;;2.80;;
14396;SDS011;50653;47.810;13.022;2023-05-07T07:57:12;2.88;;;2.67;;
14396;SDS011;50653;47.810;13.022;2023-05-07T07:59:38;2.40;;;2.30;;
14396;SDS011;50653;47.810;13.022;2023-05-07T08:02:06;2.35;;;2.25;;
14396;SDS011;50653;47.810;13.022;2023-05-07T08:04:33;2.10;;;2.00;;
14396;SDS011;50653;47.810;13.022;2023-05-07T08:07:02;2.25;;;2.05;;
14396;SDS011;50653;47.810;13.022;2023-05-07T08:09:29;2.30;;;2.20;;
14396;SDS011;50653;47.810;13.022;2023-05-07T08:11:57;4.10;;;2.35;;
14396;SDS011;50653;47.810;13.022;2023-05-07T08:14:23;2.00;;;1.90;;
14396;SDS011;50653;47.810;13.022;2023-05-07T08:16:50;2.75;;;2.55;;
14396;SDS011;50653;47.810;13.022;2023-05-07T08:19:16;2.75;;;1.95;;
14396;SDS011;50653;47.810;13.022;2023-05-07T08:21:43;2.20;;;2.00;;
14396;SDS011;50653;47.810;13.022;2023-05-07T08:24:10;2.83;;;2.65;;
14396;SDS011;50653;47.810;13.022;2023-05-07T08:26:37;2.67;;;2.47;;
14396;SDS011;50653;47.810;13.022;2023-05-07T08:29:04;1.90;;;1.80;;
14396;SDS011;50653;47.810;13.022;2023-05-07T08:31:30;3.10;;;2.27;;
14396;SDS011;50653;47.810;13.022;2023-05-07T08:33:57;2.55;;;2.35;;
14396;SDS011;50653;47.810;13.022;2023-05-07T08:36:23;2.50;;;2.40;;
14396;SDS011;50653;47.810;13.022;2023-05-07T08:38:48;2.60;;;2.40;;
14396;SDS011;50653;47.810;13.022;2023-05-07T08:41:15;2.58;;;2.47;;
14396;SDS011;50653;47.810;13.022;2023-05-07T08:43:46;2.55;;;2.35;;
14396;SDS011;50653;47.810;13.022;2023-05-07T08:46:15;3.30;;;2.30;;
14396;SDS011;50653;47.810;13.022;2023-05-07T08:48:50;2.53;;;2.33;;
14396;SDS011;50653;47.810;13.022;2023-05-07T08:51:20;2.72;;;2.53;;
14396;SDS011;50653;47.810;13.022;2023-05-07T08:53:47;2.30;;;2.20;;
14396;SDS011;50653;47.810;13.022;2023-05-07T08:56:19;2.80;;;2.60;;
14396;SDS011;50653;47.810;13.022;2023-05-07T08:58:47;2.80;;;2.60;;
14396;SDS011;50653;47.810;13.022;2023-05-07T09:01:13;2.60;;;2.40;;
14396;SDS011;50653;47.810;13.022;2023-05-07T09:03:44;2.25;;;2.15;;
14396;SDS011;50653;47.810;13.022;2023-05-07T09:06:11;2.72;;;2.63;;
14396;SDS011;50653;47.810;13.022;2023-05-07T09:08:37;2.42;;;2.20;;
14396;SDS011;50653;47.810;13.022;2023-05-07T09:11:04;2.50;;;2.35;;
14396;SDS011;50653;47.810;13.022;2023-05-07T09:13:30;5.00;;;2.10;;
14396;SDS011;50653;47.810;13.022;2023-05-07T09:15:58;2.28;;;1.98;;
14396;SDS011;50653;47.810;13.022;2023-05-07T09:18:34;2.83;;;2.30;;
14396;SDS011;50653;47.810;13.022;2023-05-07T09:21:05;2.80;;;2.60;;
14396;SDS011;50653;47.810;13.022;2023-05-07T09:23:35;2.60;;;2.30;;
14396;SDS011;50653;47.810;13.022;2023-05-07T09:26:00;2.50;;;2.40;;
14396;SDS011;50653;47.810;13.022;2023-05-07T09:28:29;3.20;;;2.90;;
14396;SDS011;50653;47.810;13.022;2023-05-07T09:30:55;3.40;;;3.10;;
14396;SDS011;50653;47.810;13.022;2023-05-07T09:33:21;2.83;;;2.63;;
14396;SDS011;50653;47.810;13.022;2023-05-07T09:35:51;3.40;;;3.20;;
14396;SDS011;50653;47.810;13.022;2023-05-07T09:38:18;2.80;;;2.50;;
14396;SDS011;50653;47.810;13.022;2023-05-07T09:40:47;4.20;;;3.80;;
14396;SDS011;50653;47.810;13.022;2023-05-07T09:43:33;2.70;;;2.47;;
14396;SDS011;50653;47.810;13.022;2023-05-07T09:46:10;2.70;;;2.50;;
14396;SDS011;50653;47.810;13.022;2023-05-07T09:48:39;2.90;;;2.80;;
14396;SDS011;50653;47.810;13.022;2023-05-07T09:51:24;4.65;;;2.97;;
14396;SDS011;50653;47.810;13.022;2023-05-07T09:53:56;3.42;;;3.13;;
14396;SDS011;50653;47.810;13.022;2023-05-07T09:56:27;6.40;;;3.08;;
14396;SDS011;50653;47.810;13.022;2023-05-07T09:58:54;2.78;;;2.67;;
14396;SDS011;50653;47.810;13.022;2023-05-07T10:01:22;5.35;;;3.90;;
14396;SDS011;50653;47.810;13.022;2023-05-07T10:03:50;3.30;;;3.00;;
14396;SDS011;50653;47.810;13.022;2023-05-07T10:06:18;4.07;;;3.88;;
14396;SDS011;50653;47.810;13.022;2023-05-07T10:08:45;4.05;;;3.85;;
14396;SDS011;50653;47.810;13.022;2023-05-07T10:11:12;2.90;;;2.70;;
14396;SDS011;50653;47.810;13.022;2023-05-07T10:13:40;3.70;;;3.45;;
14396;SDS011;50653;47.810;13.022;2023-05-07T10:16:08;4.38;;;4.18;;
14396;SDS011;50653;47.810;13.022;2023-05-07T10:18:41;4.00;;;3.80;;
14396;SDS011;50653;47.810;13.022;2023-05-07T10:21:17;4.38;;;4.07;;
14396;SDS011;50653;47.810;13.022;2023-05-07T10:23:48;5.15;;;4.75;;
14396;SDS011;50653;47.810;13.022;2023-05-07T10:26:17;4.45;;;4.15;;
14396;SDS011;50653;47.810;13.022;2023-05-07T10:28:46;6.40;;;5.90;;
14396;SDS011;50653;47.810;13.022;2023-05-07T10:34:28;4.93;;;4.60;;
14396;SDS011;50653;47.810;13.022;2023-05-07T10:37:03;4.68;;;4.38;;
14396;SDS011;50653;47.810;13.022;2023-05-07T10:39:30;5.32;;;4.82;;
14396;SDS011;50653;47.810;13.022;2023-05-07T10:41:57;4.90;;;4.50;;
14396;SDS011;50653;47.810;13.022;2023-05-07T10:44:33;4.77;;;4.47;;
14396;SDS011;50653;47.810;13.022;2023-05-07T10:47:06;7.80;;;7.30;;
14396;SDS011;50653;47.810;13.022;2023-05-07T10:49:35;6.80;;;5.10;;
14396;SDS011;50653;47.810;13.022;2023-05-07T10:52:11;5.80;;;5.47;;
14396;SDS011;50653;47.810;13.022;2023-05-07T10:57:49;6.07;;;5.27;;
14396;SDS011;50653;47.810;13.022;2023-05-07T11:05:36;7.17;;;3.47;;
14396;SDS011;50653;47.810;13.022;2023-05-07T11:08:17;4.10;;;3.80;;
14396;SDS011;50653;47.810;13.022;2023-05-07T11:10:56;4.20;;;4.00;;
14396;SDS011;50653;47.810;13.022;2023-05-07T11:13:44;5.80;;;5.40;;
14396;SDS011;50653;47.810;13.022;2023-05-07T11:16:20;4.37;;;4.07;;
14396;SDS011;50653;47.810;13.022;2023-05-07T11:19:00;4.67;;;4.37;;
14396;SDS011;50653;47.810;13.022;2023-05-07T11:24:06;3.63;;;3.43;;
14396;SDS011;50653;47.810;13.022;2023-05-07T11:26:49;4.30;;;3.90;;
14396;SDS011;50653;47.810;13.022;2023-05-07T11:29:20;3.87;;;3.67;;
14396;SDS011;50653;47.810;13.022;2023-05-07T11:31:51;3.47;;;3.23;;
14396;SDS011;50653;47.810;13.022;2023-05-07T11:34:20;3.37;;;3.13;;
14396;SDS011;50653;47.810;13.022;2023-05-07T11:36:51;4.03;;;2.63;;
14396;SDS011;50653;47.810;13.022;2023-05-07T11:39:27;3.07;;;2.97;;
14396;SDS011;50653;47.810;13.022;2023-05-07T11:41:55;2.53;;;2.33;;
14396;SDS011;50653;47.810;13.022;2023-05-07T11:44:20;3.43;;;2.93;;
14396;SDS011;50653;47.810;13.022;2023-05-07T11:46:46;3.50;;;3.30;;
14396;SDS011;50653;47.810;13.022;2023-05-07T11:49:13;2.80;;;2.43;;
14396;SDS011;50653;47.810;13.022;2023-05-07T11:51:39;2.77;;;2.43;;
14396;SDS011;50653;47.810;13.022;2023-05-07T11:54:05;2.80;;;2.60;;
14396;SDS011;50653;47.810;13.022;2023-05-07T11:56:36;2.73;;;2.57;;
14396;SDS011;50653;47.810;13.022;2023-05-07T11:59:02;2.70;;;2.60;;
14396;SDS011;50653;47.810;13.022;2023-05-07T12:01:28;2.10;;;2.00;;
14396;SDS011;50653;47.810;13.022;2023-05-07T12:03:54;2.43;;;2.33;;
14396;SDS011;50653;47.810;13.022;2023-05-07T12:06:20;2.50;;;2.30;;
14396;SDS011;50653;47.810;13.022;2023-05-07T12:08:46;3.00;;;2.67;;
14396;SDS011;50653;47.810;13.022;2023-05-07T12:11:15;5.13;;;4.73;;
14396;SDS011;50653;47.810;13.022;2023-05-07T12:13:47;2.60;;;2.40;;
14396;SDS011;50653;47.810;13.022;2023-05-07T12:16:13;1.90;;;1.80;;
14396;SDS011;50653;47.810;13.022;2023-05-07T12:18:39;2.10;;;2.00;;
14396;SDS011;50653;47.810;13.022;2023-05-07T12:21:06;3.30;;;3.00;;
14396;SDS011;50653;47.810;13.022;2023-05-07T12:23:33;2.13;;;2.03;;
14396;SDS011;50653;47.810;13.022;2023-05-07T12:25:59;2.67;;;2.57;;
14396;SDS011;50653;47.810;13.022;2023-05-07T12:28:26;1.87;;;1.77;;
14396;SDS011;50653;47.810;13.022;2023-05-07T12:30:52;2.37;;;2.20;;
14396;SDS011;50653;47.810;13.022;2023-05-07T12:33:18;3.00;;;1.83;;
14396;SDS011;50653;47.810;13.022;2023-05-07T12:35:48;2.73;;;2.30;;
14396;SDS011;50653;47.810;13.022;2023-05-07T12:38:14;2.37;;;2.17;;
14396;SDS011;50653;47.810;13.022;2023-05-07T12:40:43;2.23;;;1.73;;
14396;SDS011;50653;47.810;13.022;2023-05-07T12:43:19;2.73;;;2.13;;
14396;SDS011;50653;47.810;13.022;2023-05-07T12:45:47;1.97;;;1.87;;
14396;SDS011;50653;47.810;13.022;2023-05-07T12:48:14;3.13;;;2.23;;
14396;SDS011;50653;47.810;13.022;2023-05-07T12:50:40;2.07;;;1.77;;
14396;SDS011;50653;47.810;13.022;2023-05-07T12:53:06;3.67;;;2.03;;
14396;SDS011;50653;47.810;13.022;2023-05-07T12:55:43;1.90;;;1.80;;
14396;SDS011;50653;47.810;13.022;2023-05-07T12:58:29;3.80;;;1.90;;
14396;SDS011;50653;47.810;13.022;2023-05-07T13:00:59;1.90;;;1.80;;
14396;SDS011;50653;47.810;13.022;2023-05-07T13:03:29;1.80;;;1.70;;
14396;SDS011;50653;47.810;13.022;2023-05-07T13:06:00;2.00;;;1.90;;
14396;SDS011;50653;47.810;13.022;2023-05-07T13:08:34;2.00;;;1.90;;
14396;SDS011;50653;47.810;13.022;2023-05-07T13:11:02;2.50;;;2.40;;
14396;SDS011;50653;47.810;13.022;2023-05-07T13:13:36;1.87;;;1.77;;
14396;SDS011;50653;47.810;13.022;2023-05-07T13:16:23;2.20;;;2.00;;
14396;SDS011;50653;47.810;13.022;2023-05-07T13:18:49;2.23;;;2.13;;
14396;SDS011;50653;47.810;13.022;2023-05-07T13:21:14;4.20;;;2.10;;
14396;SDS011;50653;47.810;13.022;2023-05-07T13:23:40;2.53;;;2.37;;
14396;SDS011;50653;47.810;13.022;2023-05-07T13:26:06;3.57;;;2.43;;
14396;SDS011;50653;47.810;13.022;2023-05-07T13:28:31;2.50;;;2.40;;
14396;SDS011;50653;47.810;13.022;2023-05-07T13:30:57;2.53;;;2.37;;
14396;SDS011;50653;47.810;13.022;2023-05-07T13:33:23;4.03;;;3.73;;
14396;SDS011;50653;47.810;13.022;2023-05-07T13:35:49;3.63;;;2.50;;
14396;SDS011;50653;47.810;13.022;2023-05-07T13:38:14;3.33;;;3.03;;
14396;SDS011;50653;47.810;13.022;2023-05-07T13:40:41;3.00;;;2.73;;
14396;SDS011;50653;47.810;13.022;2023-05-07T13:43:06;2.10;;;2.00;;
14396;SDS011;50653;47.810;13.022;2023-05-07T13:45:32;2.43;;;2.33;;
14396;SDS011;50653;47.810;13.022;2023-05-07T13:47:58;2.27;;;2.17;;
14396;SDS011;50653;47.810;13.022;2023-05-07T13:50:24;2.93;;;1.90;;
14396;SDS011;50653;47.810;13.022;2023-05-07T13:52:52;1.77;;;1.67;;
14396;SDS011;50653;47.810;13.022;2023-05-07T13:55:17;3.13;;;2.70;;
14396;SDS011;50653;47.810;13.022;2023-05-07T13:57:44;1.80;;;1.70;;
14396;SDS011;50653;47.810;13.022;2023-05-07T14:00:10;2.90;;;2.70;;
14396;SDS011;50653;47.810;13.022;2023-05-07T14:02:41;2.80;;;2.20;;
14396;SDS011;50653;47.810;13.022;2023-05-07T14:05:07;2.83;;;2.50;;
14396;SDS011;50653;47.810;13.022;2023-05-07T14:07:34;2.87;;;2.67;;
14396;SDS011;50653;47.810;13.022;2023-05-07T14:09:59;2.53;;;2.43;;
14396;SDS011;50653;47.810;13.022;2023-05-07T14:12:25;3.17;;;2.97;;
14396;SDS011;50653;47.810;13.022;2023-05-07T14:14:51;2.63;;;2.53;;
14396;SDS011;50653;47.810;13.022;2023-05-07T14:17:17;2.73;;;2.63;;
14396;SDS011;50653;47.810;13.022;2023-05-07T14:19:43;4.57;;;4.37;;
14396;SDS011;50653;47.810;13.022;2023-05-07T14:22:09;2.97;;;2.77;;
14396;SDS011;50653;47.810;13.022;2023-05-07T14:24:34;3.63;;;2.70;;
14396;SDS011;50653;47.810;13.022;2023-05-07T14:27:00;3.13;;;2.40;;
14396;SDS011;50653;47.810;13.022;2023-05-07T14:29:26;3.50;;;3.00;;
14396;SDS011;50653;47.810;13.022;2023-05-07T14:31:51;2.50;;;2.30;;
14396;SDS011;50653;47.810;13.022;2023-05-07T14:34:17;2.77;;;2.67;;
14396;SDS011;50653;47.810;13.022;2023-05-07T14:36:42;3.37;;;3.07;;
14396;SDS011;50653;47.810;13.022;2023-05-07T14:39:09;3.00;;;2.80;;
14396;SDS011;50653;47.810;13.022;2023-05-07T14:41:35;8.63;;;3.40;;
14396;SDS011;50653;47.810;13.022;2023-05-07T14:44:00;3.20;;;2.90;;
14396;SDS011;50653;47.810;13.022;2023-05-07T14:46:28;3.10;;;2.90;;
14396;SDS011;50653;47.810;13.022;2023-05-07T14:48:54;3.20;;;3.00;;
14396;SDS011;50653;47.810;13.022;2023-05-07T14:51:21;3.00;;;2.80;;